sensor_id;sensor_type;location;lat;lon;timestamp;temperature;humidity
55008;DHT22;40902;45.116;21.296;2024-01-25T00:01:34;205.10;2252.80
55008;DHT22;40902;45.116;21.296;2024-01-25T00:04:00;205.20;2252.80
55008;DHT22;40902;45.116;21.296;2024-01-25T00:06:26;205.10;2252.80
55008;DHT22;40902;45.116;21.296;2024-01-25T00:08:51;205.10;2252.80
55008;DHT22;40902;45.116;21.296;2024-01-25T00:11:17;205.10;2252.80
55008;DHT22;40902;45.116;21.296;2024-01-25T00:13:43;204.90;2252.80
55008;DHT22;40902;45.116;21.296;2024-01-25T00:16:08;205.00;2252.80
55008;DHT22;40902;45.116;21.296;2024-01-25T00:18:34;204.90;2252.80
55008;DHT22;40902;45.116;21.296;2024-01-25T00:21:00;205.00;2252.80
55008;DHT22;40902;45.116;21.296;2024-01-25T00:23:26;205.00;2252.80
55008;DHT22;40902;45.116;21.296;2024-01-25T00:25:52;205.00;2252.80
55008;DHT22;40902;45.116;21.296;2024-01-25T00:28:17;205.00;2252.80
55008;DHT22;40902;45.116;21.296;2024-01-25T00:30:43;205.00;2252.80
55008;DHT22;40902;45.116;21.296;2024-01-25T00:33:09;205.00;2252.80
55008;DHT22;40902;45.116;21.296;2024-01-25T00:35:35;205.00;2252.80
55008;DHT22;40902;45.116;21.296;2024-01-25T00:38:01;205.00;2252.80
55008;DHT22;40902;45.116;21.296;2024-01-25T00:40:27;205.00;2252.80
55008;DHT22;40902;45.116;21.296;2024-01-25T00:42:53;205.10;2252.80
55008;DHT22;40902;45.116;21.296;2024-01-25T00:45:23;205.10;2252.80
55008;DHT22;40902;45.116;21.296;2024-01-25T00:47:50;205.20;2252.80
55008;DHT22;40902;45.116;21.296;2024-01-25T00:50:16;205.20;2252.80
55008;DHT22;40902;45.116;21.296;2024-01-25T00:52:45;205.30;2252.80
55008;DHT22;40902;45.116;21.296;2024-01-25T00:55:12;205.30;2252.80
55008;DHT22;40902;45.116;21.296;2024-01-25T00:57:38;205.30;2252.80
55008;DHT22;40902;45.116;21.296;2024-01-25T01:00:04;205.40;2252.80
55008;DHT22;40902;45.116;21.296;2024-01-25T01:02:43;205.40;2252.80
55008;DHT22;40902;45.116;21.296;2024-01-25T01:05:10;205.40;2252.80
55008;DHT22;40902;45.116;21.296;2024-01-25T01:07:37;205.40;2252.80
55008;DHT22;40902;45.116;21.296;2024-01-25T01:10:03;205.40;2252.80
55008;DHT22;40902;45.116;21.296;2024-01-25T01:12:30;205.40;2252.80
55008;DHT22;40902;45.116;21.296;2024-01-25T01:14:56;205.40;2252.80
55008;DHT22;40902;45.116;21.296;2024-01-25T01:17:21;205.40;2252.80
55008;DHT22;40902;45.116;21.296;2024-01-25T01:19:47;205.30;2252.80
55008;DHT22;40902;45.116;21.296;2024-01-25T01:22:13;205.30;2252.80
55008;DHT22;40902;45.116;21.296;2024-01-25T01:24:39;205.30;2252.80
55008;DHT22;40902;45.116;21.296;2024-01-25T01:27:04;205.20;2252.80
55008;DHT22;40902;45.116;21.296;2024-01-25T01:29:30;205.20;2252.80
55008;DHT22;40902;45.116;21.296;2024-01-25T01:31:56;205.10;2252.80
55008;DHT22;40902;45.116;21.296;2024-01-25T01:34:21;205.10;2252.80
55008;DHT22;40902;45.116;21.296;2024-01-25T01:36:47;205.00;2252.80
55008;DHT22;40902;45.116;21.296;2024-01-25T01:39:13;205.00;2252.80
55008;DHT22;40902;45.116;21.296;2024-01-25T01:41:39;204.90;2252.80
55008;DHT22;40902;45.116;21.296;2024-01-25T01:44:04;204.90;2252.80
55008;DHT22;40902;45.116;21.296;2024-01-25T01:46:35;204.90;2252.80
55008;DHT22;40902;45.116;21.296;2024-01-25T01:49:04;204.90;2252.80
55008;DHT22;40902;45.116;21.296;2024-01-25T01:51:31;204.90;2252.80
55008;DHT22;40902;45.116;21.296;2024-01-25T01:53:57;204.90;2252.80
55008;DHT22;40902;45.116;21.296;2024-01-25T01:56:24;204.90;2252.80
55008;DHT22;40902;45.116;21.296;2024-01-25T01:58:51;204.90;2252.80
55008;DHT22;40902;45.116;21.296;2024-01-25T02:01:18;204.90;2252.80
55008;DHT22;40902;45.116;21.296;2024-01-25T02:03:44;204.90;2252.80
55008;DHT22;40902;45.116;21.296;2024-01-25T02:06:10;204.90;2252.80
55008;DHT22;40902;45.116;21.296;2024-01-25T02:08:36;204.90;2252.80
55008;DHT22;40902;45.116;21.296;2024-01-25T02:11:02;204.90;2252.80
55008;DHT22;40902;45.116;21.296;2024-01-25T02:13:28;204.80;2252.80
55008;DHT22;40902;45.116;21.296;2024-01-25T02:15:54;180.10;2252.80
55008;DHT22;40902;45.116;21.296;2024-01-25T02:18:19;180.10;2252.80
55008;DHT22;40902;45.116;21.296;2024-01-25T02:20:45;180.10;2252.80
55008;DHT22;40902;45.116;21.296;2024-01-25T02:23:11;180.10;2252.80
55008;DHT22;40902;45.116;21.296;2024-01-25T02:25:37;180.10;2252.80
55008;DHT22;40902;45.116;21.296;2024-01-25T02:28:02;204.80;2252.80
55008;DHT22;40902;45.116;21.296;2024-01-25T02:30:28;180.10;2252.80
55008;DHT22;40902;45.116;21.296;2024-01-25T02:32:54;180.10;2252.80
55008;DHT22;40902;45.116;21.296;2024-01-25T02:35:20;180.10;2252.80
55008;DHT22;40902;45.116;21.296;2024-01-25T02:37:46;180.10;2252.80
55008;DHT22;40902;45.116;21.296;2024-01-25T02:40:12;180.00;2252.80
55008;DHT22;40902;45.116;21.296;2024-01-25T02:42:38;180.00;2252.80
55008;DHT22;40902;45.116;21.296;2024-01-25T02:45:04;180.00;2252.80
55008;DHT22;40902;45.116;21.296;2024-01-25T02:47:29;180.00;2252.80
55008;DHT22;40902;45.116;21.296;2024-01-25T02:49:55;180.00;2252.80
55008;DHT22;40902;45.116;21.296;2024-01-25T02:52:21;179.90;2252.80
55008;DHT22;40902;45.116;21.296;2024-01-25T02:54:47;179.90;2252.80
55008;DHT22;40902;45.116;21.296;2024-01-25T02:57:12;179.90;2252.80
55008;DHT22;40902;45.116;21.296;2024-01-25T02:59:38;179.90;2252.80
55008;DHT22;40902;45.116;21.296;2024-01-25T03:02:04;179.90;2252.80
55008;DHT22;40902;45.116;21.296;2024-01-25T03:04:30;179.90;2252.80
55008;DHT22;40902;45.116;21.296;2024-01-25T03:06:55;179.90;2252.80
55008;DHT22;40902;45.116;21.296;2024-01-25T03:09:21;179.80;2252.80
55008;DHT22;40902;45.116;21.296;2024-01-25T03:11:49;179.80;2252.80
55008;DHT22;40902;45.116;21.296;2024-01-25T03:14:15;179.80;2252.80
55008;DHT22;40902;45.116;21.296;2024-01-25T03:16:41;179.70;2252.80
55008;DHT22;40902;45.116;21.296;2024-01-25T03:19:06;179.70;2252.80
55008;DHT22;40902;45.116;21.296;2024-01-25T03:21:32;179.70;2252.80
55008;DHT22;40902;45.116;21.296;2024-01-25T03:23:58;179.60;2252.80
55008;DHT22;40902;45.116;21.296;2024-01-25T03:26:26;179.60;2252.80
55008;DHT22;40902;45.116;21.296;2024-01-25T03:28:52;179.60;2252.80
55008;DHT22;40902;45.116;21.296;2024-01-25T03:31:17;179.50;2252.80
55008;DHT22;40902;45.116;21.296;2024-01-25T03:33:43;179.50;2252.80
55008;DHT22;40902;45.116;21.296;2024-01-25T03:36:09;179.40;2252.80
55008;DHT22;40902;45.116;21.296;2024-01-25T03:38:34;179.30;2252.80
55008;DHT22;40902;45.116;21.296;2024-01-25T03:41:00;179.30;2252.80
55008;DHT22;40902;45.116;21.296;2024-01-25T03:43:26;179.30;2252.80
55008;DHT22;40902;45.116;21.296;2024-01-25T03:45:52;179.20;2252.80
55008;DHT22;40902;45.116;21.296;2024-01-25T03:48:17;179.20;2252.80
55008;DHT22;40902;45.116;21.296;2024-01-25T03:50:43;179.30;2252.80
55008;DHT22;40902;45.116;21.296;2024-01-25T03:53:09;179.30;2252.80
55008;DHT22;40902;45.116;21.296;2024-01-25T03:55:35;179.40;2252.80
55008;DHT22;40902;45.116;21.296;2024-01-25T03:58:01;179.50;2252.80
55008;DHT22;40902;45.116;21.296;2024-01-25T04:00:26;179.50;2252.80
55008;DHT22;40902;45.116;21.296;2024-01-25T04:02:52;179.50;2252.80
55008;DHT22;40902;45.116;21.296;2024-01-25T04:05:18;179.40;2252.80
55008;DHT22;40902;45.116;21.296;2024-01-25T04:07:43;179.30;2252.80
55008;DHT22;40902;45.116;21.296;2024-01-25T04:10:09;179.20;2252.80
55008;DHT22;40902;45.116;21.296;2024-01-25T04:12:36;154.50;2252.80
55008;DHT22;40902;45.116;21.296;2024-01-25T04:15:01;154.30;2252.80
55008;DHT22;40902;45.116;21.296;2024-01-25T04:17:27;154.10;2252.80
55008;DHT22;40902;45.116;21.296;2024-01-25T04:19:53;154.10;2252.80
55008;DHT22;40902;45.116;21.296;2024-01-25T04:22:19;154.20;2252.80
55008;DHT22;40902;45.116;21.296;2024-01-25T04:24:45;154.20;2252.80
55008;DHT22;40902;45.116;21.296;2024-01-25T04:27:14;154.30;2252.80
55008;DHT22;40902;45.116;21.296;2024-01-25T04:29:43;154.30;2252.80
55008;DHT22;40902;45.116;21.296;2024-01-25T04:32:09;154.40;2252.80
55008;DHT22;40902;45.116;21.296;2024-01-25T04:34:35;154.30;2252.80
55008;DHT22;40902;45.116;21.296;2024-01-25T04:37:01;154.40;2252.80
55008;DHT22;40902;45.116;21.296;2024-01-25T04:39:27;154.50;2252.80
55008;DHT22;40902;45.116;21.296;2024-01-25T04:41:53;179.20;2252.80
55008;DHT22;40902;45.116;21.296;2024-01-25T04:44:19;179.20;2252.80
55008;DHT22;40902;45.116;21.296;2024-01-25T04:46:44;154.40;2252.80
55008;DHT22;40902;45.116;21.296;2024-01-25T04:49:10;154.30;2252.80
55008;DHT22;40902;45.116;21.296;2024-01-25T04:51:36;154.20;2252.80
55008;DHT22;40902;45.116;21.296;2024-01-25T04:54:02;154.20;2252.80
55008;DHT22;40902;45.116;21.296;2024-01-25T04:56:28;154.20;2252.80
55008;DHT22;40902;45.116;21.296;2024-01-25T04:58:54;154.30;2252.80
55008;DHT22;40902;45.116;21.296;2024-01-25T05:01:20;154.30;2252.80
55008;DHT22;40902;45.116;21.296;2024-01-25T05:03:46;154.30;2252.80
55008;DHT22;40902;45.116;21.296;2024-01-25T05:06:11;154.30;2252.80
55008;DHT22;40902;45.116;21.296;2024-01-25T05:08:38;154.30;2252.80
55008;DHT22;40902;45.116;21.296;2024-01-25T05:11:04;154.30;2252.80
55008;DHT22;40902;45.116;21.296;2024-01-25T05:13:30;154.30;2252.80
55008;DHT22;40902;45.116;21.296;2024-01-25T05:15:55;154.30;2252.80
55008;DHT22;40902;45.116;21.296;2024-01-25T05:18:21;154.30;2252.80
55008;DHT22;40902;45.116;21.296;2024-01-25T05:20:47;154.40;2252.80
55008;DHT22;40902;45.116;21.296;2024-01-25T05:23:13;154.30;2252.80
55008;DHT22;40902;45.116;21.296;2024-01-25T05:25:38;154.30;2252.80
55008;DHT22;40902;45.116;21.296;2024-01-25T05:28:04;154.30;2252.80
55008;DHT22;40902;45.116;21.296;2024-01-25T05:30:30;154.30;2252.80
55008;DHT22;40902;45.116;21.296;2024-01-25T05:32:56;154.30;2252.80
55008;DHT22;40902;45.116;21.296;2024-01-25T05:35:22;154.30;2252.80
55008;DHT22;40902;45.116;21.296;2024-01-25T05:37:49;154.30;2252.80
55008;DHT22;40902;45.116;21.296;2024-01-25T05:40:15;154.40;2252.80
55008;DHT22;40902;45.116;21.296;2024-01-25T05:42:41;154.30;2252.80
55008;DHT22;40902;45.116;21.296;2024-01-25T05:45:07;154.20;2252.80
55008;DHT22;40902;45.116;21.296;2024-01-25T05:47:34;154.10;2252.80
55008;DHT22;40902;45.116;21.296;2024-01-25T05:50:00;154.10;2252.80
55008;DHT22;40902;45.116;21.296;2024-01-25T05:52:26;154.10;2252.80
55008;DHT22;40902;45.116;21.296;2024-01-25T05:54:52;154.20;2252.80
55008;DHT22;40902;45.116;21.296;2024-01-25T05:57:18;154.10;2252.80
55008;DHT22;40902;45.116;21.296;2024-01-25T05:59:45;154.20;2252.80
55008;DHT22;40902;45.116;21.296;2024-01-25T06:02:10;154.20;2252.80
55008;DHT22;40902;45.116;21.296;2024-01-25T06:04:36;154.30;2252.80
55008;DHT22;40902;45.116;21.296;2024-01-25T06:07:03;154.40;2252.80
55008;DHT22;40902;45.116;21.296;2024-01-25T06:09:29;179.20;2252.80
55008;DHT22;40902;45.116;21.296;2024-01-25T06:11:54;179.20;2252.80
55008;DHT22;40902;45.116;21.296;2024-01-25T06:14:20;179.40;2252.80
55008;DHT22;40902;45.116;21.296;2024-01-25T06:16:46;179.60;2252.80
55008;DHT22;40902;45.116;21.296;2024-01-25T06:19:12;179.80;2252.80
55008;DHT22;40902;45.116;21.296;2024-01-25T06:21:38;179.90;2252.80
55008;DHT22;40902;45.116;21.296;2024-01-25T06:24:04;180.00;2252.80
55008;DHT22;40902;45.116;21.296;2024-01-25T06:26:30;180.10;2252.80
55008;DHT22;40902;45.116;21.296;2024-01-25T06:28:56;204.80;2252.80
55008;DHT22;40902;45.116;21.296;2024-01-25T06:31:25;204.90;2252.80
55008;DHT22;40902;45.116;21.296;2024-01-25T06:33:51;205.00;2252.80
55008;DHT22;40902;45.116;21.296;2024-01-25T06:36:18;205.00;2252.80
55008;DHT22;40902;45.116;21.296;2024-01-25T06:38:44;204.90;2252.80
55008;DHT22;40902;45.116;21.296;2024-01-25T06:41:10;205.00;2252.80
55008;DHT22;40902;45.116;21.296;2024-01-25T06:43:36;204.90;2252.80
55008;DHT22;40902;45.116;21.296;2024-01-25T06:46:02;204.80;2252.80
55008;DHT22;40902;45.116;21.296;2024-01-25T06:48:28;204.80;2252.80
55008;DHT22;40902;45.116;21.296;2024-01-25T06:50:53;180.10;2252.80
55008;DHT22;40902;45.116;21.296;2024-01-25T06:53:21;180.10;2252.80
55008;DHT22;40902;45.116;21.296;2024-01-25T06:55:47;180.10;2252.80
55008;DHT22;40902;45.116;21.296;2024-01-25T06:58:12;180.10;2252.80
55008;DHT22;40902;45.116;21.296;2024-01-25T07:00:38;204.80;2252.80
55008;DHT22;40902;45.116;21.296;2024-01-25T07:03:05;180.10;2252.80
55008;DHT22;40902;45.116;21.296;2024-01-25T07:05:31;179.90;2252.80
55008;DHT22;40902;45.116;21.296;2024-01-25T07:07:59;179.90;2252.80
55008;DHT22;40902;45.116;21.296;2024-01-25T07:10:25;180.00;2252.80
55008;DHT22;40902;45.116;21.296;2024-01-25T07:12:52;179.90;2252.80
55008;DHT22;40902;45.116;21.296;2024-01-25T07:15:19;179.80;2252.80
55008;DHT22;40902;45.116;21.296;2024-01-25T07:17:45;179.90;2252.80
55008;DHT22;40902;45.116;21.296;2024-01-25T07:20:11;179.80;2252.80
55008;DHT22;40902;45.116;21.296;2024-01-25T07:22:36;179.80;2252.80
55008;DHT22;40902;45.116;21.296;2024-01-25T07:25:02;179.80;2252.80
55008;DHT22;40902;45.116;21.296;2024-01-25T07:27:28;179.80;2252.80
55008;DHT22;40902;45.116;21.296;2024-01-25T07:29:54;179.90;2252.80
55008;DHT22;40902;45.116;21.296;2024-01-25T07:32:20;179.90;2252.80
55008;DHT22;40902;45.116;21.296;2024-01-25T07:34:46;179.90;2252.80
55008;DHT22;40902;45.116;21.296;2024-01-25T07:37:12;179.90;2252.80
55008;DHT22;40902;45.116;21.296;2024-01-25T07:39:39;180.10;2252.80
55008;DHT22;40902;45.116;21.296;2024-01-25T07:42:04;180.00;2252.80
55008;DHT22;40902;45.116;21.296;2024-01-25T07:44:30;204.80;2252.80
55008;DHT22;40902;45.116;21.296;2024-01-25T07:46:56;204.90;2252.80
55008;DHT22;40902;45.116;21.296;2024-01-25T07:49:22;205.00;2252.80
55008;DHT22;40902;45.116;21.296;2024-01-25T07:51:47;205.10;2252.80
55008;DHT22;40902;45.116;21.296;2024-01-25T07:54:14;205.40;2252.80
55008;DHT22;40902;45.116;21.296;2024-01-25T07:56:40;205.50;2252.80
55008;DHT22;40902;45.116;21.296;2024-01-25T07:59:06;205.70;2252.80
55008;DHT22;40902;45.116;21.296;2024-01-25T08:01:31;205.70;2252.80
55008;DHT22;40902;45.116;21.296;2024-01-25T08:03:57;205.70;2252.80
55008;DHT22;40902;45.116;21.296;2024-01-25T08:06:23;205.70;2252.80
55008;DHT22;40902;45.116;21.296;2024-01-25T08:08:49;230.40;2252.80
55008;DHT22;40902;45.116;21.296;2024-01-25T08:11:15;230.50;2252.80
55008;DHT22;40902;45.116;21.296;2024-01-25T08:13:44;230.60;2252.80
55008;DHT22;40902;45.116;21.296;2024-01-25T08:16:10;230.70;2252.80
55008;DHT22;40902;45.116;21.296;2024-01-25T08:18:39;230.70;2252.80
55008;DHT22;40902;45.116;21.296;2024-01-25T08:21:05;230.90;2252.80
55008;DHT22;40902;45.116;21.296;2024-01-25T08:23:31;230.90;2252.80
55008;DHT22;40902;45.116;21.296;2024-01-25T08:25:57;230.80;2252.80
55008;DHT22;40902;45.116;21.296;2024-01-25T08:28:23;230.80;2252.80
55008;DHT22;40902;45.116;21.296;2024-01-25T08:30:49;230.70;2252.80
55008;DHT22;40902;45.116;21.296;2024-01-25T08:33:14;230.70;2252.80
55008;DHT22;40902;45.116;21.296;2024-01-25T08:35:40;230.70;2252.80
55008;DHT22;40902;45.116;21.296;2024-01-25T08:38:07;230.70;2252.80
55008;DHT22;40902;45.116;21.296;2024-01-25T08:40:33;230.70;2252.80
55008;DHT22;40902;45.116;21.296;2024-01-25T08:42:59;230.60;2252.80
55008;DHT22;40902;45.116;21.296;2024-01-25T08:45:25;230.50;2252.80
55008;DHT22;40902;45.116;21.296;2024-01-25T08:47:51;230.50;2252.80
55008;DHT22;40902;45.116;21.296;2024-01-25T08:50:17;230.50;2252.80
55008;DHT22;40902;45.116;21.296;2024-01-25T08:52:43;230.40;2252.80
55008;DHT22;40902;45.116;21.296;2024-01-25T08:55:09;230.40;2252.80
55008;DHT22;40902;45.116;21.296;2024-01-25T08:57:35;230.40;2252.80
55008;DHT22;40902;45.116;21.296;2024-01-25T09:00:02;230.40;2252.80
55008;DHT22;40902;45.116;21.296;2024-01-25T09:02:34;230.40;2252.80
55008;DHT22;40902;45.116;21.296;2024-01-25T09:05:00;230.40;2252.80
55008;DHT22;40902;45.116;21.296;2024-01-25T09:07:25;230.50;2252.80
55008;DHT22;40902;45.116;21.296;2024-01-25T09:09:51;230.50;2252.80
55008;DHT22;40902;45.116;21.296;2024-01-25T09:12:17;230.40;2252.80
55008;DHT22;40902;45.116;21.296;2024-01-25T09:14:42;230.50;2252.80
55008;DHT22;40902;45.116;21.296;2024-01-25T09:17:09;230.50;2252.80
55008;DHT22;40902;45.116;21.296;2024-01-25T09:19:35;230.70;2252.80
55008;DHT22;40902;45.116;21.296;2024-01-25T09:22:01;230.80;2252.80
55008;DHT22;40902;45.116;21.296;2024-01-25T09:24:33;230.90;2252.80
55008;DHT22;40902;45.116;21.296;2024-01-25T09:27:02;231.10;2252.80
55008;DHT22;40902;45.116;21.296;2024-01-25T09:29:28;231.20;2252.80
55008;DHT22;40902;45.116;21.296;2024-01-25T09:31:54;231.20;2252.80
55008;DHT22;40902;45.116;21.296;2024-01-25T09:34:20;231.30;2252.80
55008;DHT22;40902;45.116;21.296;2024-01-25T09:36:46;231.30;2252.80
55008;DHT22;40902;45.116;21.296;2024-01-25T09:39:13;256.00;2252.80
55008;DHT22;40902;45.116;21.296;2024-01-25T09:41:40;231.30;2252.80
55008;DHT22;40902;45.116;21.296;2024-01-25T09:44:09;231.30;2252.80
55008;DHT22;40902;45.116;21.296;2024-01-25T09:46:37;231.20;2252.80
55008;DHT22;40902;45.116;21.296;2024-01-25T09:49:03;231.10;2252.80
55008;DHT22;40902;45.116;21.296;2024-01-25T09:51:37;231.10;2252.80
55008;DHT22;40902;45.116;21.296;2024-01-25T09:54:06;231.10;2252.80
55008;DHT22;40902;45.116;21.296;2024-01-25T09:56:33;231.10;2252.80
55008;DHT22;40902;45.116;21.296;2024-01-25T09:59:00;231.20;2252.80
55008;DHT22;40902;45.116;21.296;2024-01-25T10:01:27;231.20;2252.80
55008;DHT22;40902;45.116;21.296;2024-01-25T10:03:53;231.10;2252.80
55008;DHT22;40902;45.116;21.296;2024-01-25T10:06:21;231.10;2252.80
55008;DHT22;40902;45.116;21.296;2024-01-25T10:08:48;231.00;2252.80
55008;DHT22;40902;45.116;21.296;2024-01-25T10:11:14;231.00;2252.80
55008;DHT22;40902;45.116;21.296;2024-01-25T10:13:44;231.10;2252.80
55008;DHT22;40902;45.116;21.296;2024-01-25T10:16:14;231.20;2252.80
55008;DHT22;40902;45.116;21.296;2024-01-25T10:18:44;231.30;2252.80
55008;DHT22;40902;45.116;21.296;2024-01-25T10:21:11;231.30;2252.80
55008;DHT22;40902;45.116;21.296;2024-01-25T10:23:43;256.00;2252.80
55008;DHT22;40902;45.116;21.296;2024-01-25T10:26:09;256.00;2252.80
55008;DHT22;40902;45.116;21.296;2024-01-25T10:28:35;256.10;2252.80
55008;DHT22;40902;45.116;21.296;2024-01-25T10:31:02;256.10;2252.80
55008;DHT22;40902;45.116;21.296;2024-01-25T10:33:30;256.30;2252.80
55008;DHT22;40902;45.116;21.296;2024-01-25T10:35:57;256.40;2252.80
55008;DHT22;40902;45.116;21.296;2024-01-25T10:38:33;256.60;2252.80
55008;DHT22;40902;45.116;21.296;2024-01-25T10:41:02;256.70;2252.80
55008;DHT22;40902;45.116;21.296;2024-01-25T10:43:28;256.80;2252.80
55008;DHT22;40902;45.116;21.296;2024-01-25T10:45:56;256.80;2252.80
55008;DHT22;40902;45.116;21.296;2024-01-25T10:48:24;256.90;2252.80
55008;DHT22;40902;45.116;21.296;2024-01-25T10:50:51;281.60;2278.40
55008;DHT22;40902;45.116;21.296;2024-01-25T10:53:18;281.60;2278.40
55008;DHT22;40902;45.116;21.296;2024-01-25T10:55:44;281.70;2278.40
55008;DHT22;40902;45.116;21.296;2024-01-25T10:58:15;281.80;2278.40
55008;DHT22;40902;45.116;21.296;2024-01-25T11:00:41;281.90;2278.40
55008;DHT22;40902;45.116;21.296;2024-01-25T11:03:07;282.00;2278.40
55008;DHT22;40902;45.116;21.296;2024-01-25T11:05:33;282.00;2278.40
55008;DHT22;40902;45.116;21.296;2024-01-25T11:08:00;282.00;2278.40
55008;DHT22;40902;45.116;21.296;2024-01-25T11:10:27;282.00;2278.40
55008;DHT22;40902;45.116;21.296;2024-01-25T11:12:56;282.10;2278.40
55008;DHT22;40902;45.116;21.296;2024-01-25T11:15:29;282.10;2278.40
55008;DHT22;40902;45.116;21.296;2024-01-25T11:17:56;282.20;2278.40
55008;DHT22;40902;45.116;21.296;2024-01-25T11:20:28;282.20;2278.40
55008;DHT22;40902;45.116;21.296;2024-01-25T11:23:02;282.30;2278.40
55008;DHT22;40902;45.116;21.296;2024-01-25T11:25:31;282.30;2278.40
55008;DHT22;40902;45.116;21.296;2024-01-25T11:27:58;282.30;2278.40
55008;DHT22;40902;45.116;21.296;2024-01-25T11:30:25;282.40;2278.40
55008;DHT22;40902;45.116;21.296;2024-01-25T11:32:51;282.50;2278.40
55008;DHT22;40902;45.116;21.296;2024-01-25T11:35:16;282.50;2278.40
55008;DHT22;40902;45.116;21.296;2024-01-25T11:37:46;282.50;2278.40
55008;DHT22;40902;45.116;21.296;2024-01-25T11:40:13;282.50;2278.40
55008;DHT22;40902;45.116;21.296;2024-01-25T11:42:45;282.50;2278.40
55008;DHT22;40902;45.116;21.296;2024-01-25T11:45:12;307.30;2304.00
55008;DHT22;40902;45.116;21.296;2024-01-25T11:47:40;307.20;2304.00
55008;DHT22;40902;45.116;21.296;2024-01-25T11:50:07;307.30;2304.00
55008;DHT22;40902;45.116;21.296;2024-01-25T11:52:34;307.20;2304.00
55008;DHT22;40902;45.116;21.296;2024-01-25T11:55:04;307.20;2304.00
55008;DHT22;40902;45.116;21.296;2024-01-25T11:57:32;307.20;2304.00
55008;DHT22;40902;45.116;21.296;2024-01-25T12:00:00;282.50;2278.40
55008;DHT22;40902;45.116;21.296;2024-01-25T12:02:26;282.50;2278.40
55008;DHT22;40902;45.116;21.296;2024-01-25T12:04:53;307.20;2304.00
55008;DHT22;40902;45.116;21.296;2024-01-25T12:07:21;307.20;2304.00
55008;DHT22;40902;45.116;21.296;2024-01-25T12:10:03;307.40;2304.00
55008;DHT22;40902;45.116;21.296;2024-01-25T12:12:29;307.60;2304.00
55008;DHT22;40902;45.116;21.296;2024-01-25T12:15:04;307.70;2304.00
55008;DHT22;40902;45.116;21.296;2024-01-25T12:17:30;307.90;2304.00
55008;DHT22;40902;45.116;21.296;2024-01-25T12:19:57;308.00;2304.00
55008;DHT22;40902;45.116;21.296;2024-01-25T12:22:23;308.10;2304.00
55008;DHT22;40902;45.116;21.296;2024-01-25T12:24:52;308.00;2304.00
55008;DHT22;40902;45.116;21.296;2024-01-25T12:27:23;308.00;2304.00
55008;DHT22;40902;45.116;21.296;2024-01-25T12:29:52;308.00;2304.00
55008;DHT22;40902;45.116;21.296;2024-01-25T12:32:20;308.00;2304.00
55008;DHT22;40902;45.116;21.296;2024-01-25T12:34:59;307.90;2304.00
55008;DHT22;40902;45.116;21.296;2024-01-25T12:37:29;307.90;2304.00
55008;DHT22;40902;45.116;21.296;2024-01-25T12:39:55;307.90;2304.00
55008;DHT22;40902;45.116;21.296;2024-01-25T12:42:21;307.90;2304.00
55008;DHT22;40902;45.116;21.296;2024-01-25T12:44:48;307.90;2304.00
55008;DHT22;40902;45.116;21.296;2024-01-25T12:47:14;307.90;2304.00
55008;DHT22;40902;45.116;21.296;2024-01-25T12:49:43;307.90;2304.00
55008;DHT22;40902;45.116;21.296;2024-01-25T12:52:11;307.80;2304.00
55008;DHT22;40902;45.116;21.296;2024-01-25T12:54:37;307.80;2304.00
55008;DHT22;40902;45.116;21.296;2024-01-25T12:57:04;307.80;2304.00
55008;DHT22;40902;45.116;21.296;2024-01-25T12:59:30;307.70;2304.00
55008;DHT22;40902;45.116;21.296;2024-01-25T13:01:56;307.80;2304.00
55008;DHT22;40902;45.116;21.296;2024-01-25T13:04:23;307.70;2304.00
55008;DHT22;40902;45.116;21.296;2024-01-25T13:06:52;307.60;2304.00
55008;DHT22;40902;45.116;21.296;2024-01-25T13:09:18;307.50;2304.00
55008;DHT22;40902;45.116;21.296;2024-01-25T13:11:44;307.40;2304.00
55008;DHT22;40902;45.116;21.296;2024-01-25T13:14:10;307.50;2304.00
55008;DHT22;40902;45.116;21.296;2024-01-25T13:16:35;307.40;2304.00
55008;DHT22;40902;45.116;21.296;2024-01-25T13:19:01;307.40;2304.00
55008;DHT22;40902;45.116;21.296;2024-01-25T13:21:27;307.40;2304.00
55008;DHT22;40902;45.116;21.296;2024-01-25T13:23:53;307.50;2304.00
55008;DHT22;40902;45.116;21.296;2024-01-25T13:26:19;307.40;2304.00
55008;DHT22;40902;45.116;21.296;2024-01-25T13:28:44;307.30;2304.00
55008;DHT22;40902;45.116;21.296;2024-01-25T13:31:10;307.40;2304.00
55008;DHT22;40902;45.116;21.296;2024-01-25T13:33:36;307.40;2304.00
55008;DHT22;40902;45.116;21.296;2024-01-25T13:36:02;307.30;2304.00
55008;DHT22;40902;45.116;21.296;2024-01-25T13:38:30;307.30;2304.00
55008;DHT22;40902;45.116;21.296;2024-01-25T13:40:56;307.40;2304.00
55008;DHT22;40902;45.116;21.296;2024-01-25T13:43:21;307.40;2304.00
55008;DHT22;40902;45.116;21.296;2024-01-25T13:45:47;307.40;2304.00
55008;DHT22;40902;45.116;21.296;2024-01-25T13:48:13;307.30;2304.00
55008;DHT22;40902;45.116;21.296;2024-01-25T13:50:38;307.40;2304.00
55008;DHT22;40902;45.116;21.296;2024-01-25T13:53:04;307.40;2304.00
55008;DHT22;40902;45.116;21.296;2024-01-25T13:55:30;307.40;2304.00
55008;DHT22;40902;45.116;21.296;2024-01-25T13:57:56;307.60;2304.00
55008;DHT22;40902;45.116;21.296;2024-01-25T14:00:21;307.50;2304.00
55008;DHT22;40902;45.116;21.296;2024-01-25T14:02:48;307.50;2304.00
55008;DHT22;40902;45.116;21.296;2024-01-25T14:05:13;307.40;2304.00
55008;DHT22;40902;45.116;21.296;2024-01-25T14:07:39;307.40;2304.00
55008;DHT22;40902;45.116;21.296;2024-01-25T14:10:16;307.30;2304.00
55008;DHT22;40902;45.116;21.296;2024-01-25T14:12:42;282.50;2278.40
55008;DHT22;40902;45.116;21.296;2024-01-25T14:15:09;282.50;2278.40
55008;DHT22;40902;45.116;21.296;2024-01-25T14:17:35;282.40;2278.40
55008;DHT22;40902;45.116;21.296;2024-01-25T14:20:02;282.40;2278.40
55008;DHT22;40902;45.116;21.296;2024-01-25T14:22:30;282.20;2278.40
55008;DHT22;40902;45.116;21.296;2024-01-25T14:24:56;282.10;2278.40
55008;DHT22;40902;45.116;21.296;2024-01-25T14:27:21;282.00;2278.40
55008;DHT22;40902;45.116;21.296;2024-01-25T14:29:47;282.10;2278.40
55008;DHT22;40902;45.116;21.296;2024-01-25T14:32:13;282.10;2278.40